sensor_id;sensor_type;location;lat;lon;timestamp;P1;durP1;ratioP1;P2;durP2;ratioP2
77304;SDS011;66364;52.622;7.746;2023-08-20T00:01:42;154.72;;;132.00;;
77304;SDS011;66364;52.622;7.746;2023-08-20T00:03:42;154.47;;;134.80;;
77304;SDS011;66364;52.622;7.746;2023-08-20T00:05:44;161.80;;;137.40;;
77304;SDS011;66364;52.622;7.746;2023-08-20T00:07:45;158.65;;;134.47;;
77304;SDS011;66364;52.622;7.746;2023-08-20T00:09:51;160.37;;;135.25;;
77304;SDS011;66364;52.622;7.746;2023-08-20T00:11:52;172.70;;;136.77;;
77304;SDS011;66364;52.622;7.746;2023-08-20T00:13:52;169.87;;;137.50;;
77304;SDS011;66364;52.622;7.746;2023-08-20T00:15:54;178.45;;;142.20;;
77304;SDS011;66364;52.622;7.746;2023-08-20T00:17:56;179.60;;;142.15;;
77304;SDS011;66364;52.622;7.746;2023-08-20T00:19:57;178.10;;;140.30;;
77304;SDS011;66364;52.622;7.746;2023-08-20T00:21:59;181.18;;;141.62;;
77304;SDS011;66364;52.622;7.746;2023-08-20T00:24:02;164.03;;;137.92;;
77304;SDS011;66364;52.622;7.746;2023-08-20T00:26:03;178.80;;;142.87;;
77304;SDS011;66364;52.622;7.746;2023-08-20T00:28:05;164.10;;;135.30;;
77304;SDS011;66364;52.622;7.746;2023-08-20T00:30:07;150.93;;;134.65;;
77304;SDS011;66364;52.622;7.746;2023-08-20T00:32:09;158.50;;;134.50;;
77304;SDS011;66364;52.622;7.746;2023-08-20T00:34:10;176.77;;;137.63;;
77304;SDS011;66364;52.622;7.746;2023-08-20T00:36:11;180.57;;;144.57;;
77304;SDS011;66364;52.622;7.746;2023-08-20T00:38:12;178.67;;;158.03;;
77304;SDS011;66364;52.622;7.746;2023-08-20T00:40:13;182.62;;;145.92;;
77304;SDS011;66364;52.622;7.746;2023-08-20T00:42:14;181.40;;;146.05;;
77304;SDS011;66364;52.622;7.746;2023-08-20T00:44:15;188.32;;;145.25;;
77304;SDS011;66364;52.622;7.746;2023-08-20T00:46:16;185.53;;;140.27;;
77304;SDS011;66364;52.622;7.746;2023-08-20T00:48:18;182.95;;;147.53;;
77304;SDS011;66364;52.622;7.746;2023-08-20T00:50:19;199.65;;;145.70;;
77304;SDS011;66364;52.622;7.746;2023-08-20T00:52:21;177.85;;;143.97;;
77304;SDS011;66364;52.622;7.746;2023-08-20T00:54:23;195.68;;;147.10;;
77304;SDS011;66364;52.622;7.746;2023-08-20T00:56:24;196.85;;;145.82;;
77304;SDS011;66364;52.622;7.746;2023-08-20T00:58:26;211.75;;;148.30;;
77304;SDS011;66364;52.622;7.746;2023-08-20T01:00:28;221.28;;;149.18;;
77304;SDS011;66364;52.622;7.746;2023-08-20T01:02:29;222.30;;;149.67;;
77304;SDS011;66364;52.622;7.746;2023-08-20T01:04:30;211.80;;;146.65;;
77304;SDS011;66364;52.622;7.746;2023-08-20T01:08:41;210.80;;;144.43;;
77304;SDS011;66364;52.622;7.746;2023-08-20T01:13:06;224.00;;;145.77;;
77304;SDS011;66364;52.622;7.746;2023-08-20T01:15:09;225.00;;;150.35;;
77304;SDS011;66364;52.622;7.746;2023-08-20T01:17:11;213.40;;;150.90;;
77304;SDS011;66364;52.622;7.746;2023-08-20T01:19:14;210.83;;;150.63;;
77304;SDS011;66364;52.622;7.746;2023-08-20T01:23:46;233.55;;;149.82;;
77304;SDS011;66364;52.622;7.746;2023-08-20T01:25:52;238.22;;;150.25;;
77304;SDS011;66364;52.622;7.746;2023-08-20T01:30:25;219.50;;;146.93;;
77304;SDS011;66364;52.622;7.746;2023-08-20T01:32:27;242.45;;;153.57;;
77304;SDS011;66364;52.622;7.746;2023-08-20T01:34:28;235.20;;;148.95;;
77304;SDS011;66364;52.622;7.746;2023-08-20T01:36:29;233.75;;;149.55;;
77304;SDS011;66364;52.622;7.746;2023-08-20T01:38:30;233.72;;;149.47;;
77304;SDS011;66364;52.622;7.746;2023-08-20T01:40:31;238.10;;;151.13;;
77304;SDS011;66364;52.622;7.746;2023-08-20T01:42:32;242.50;;;149.87;;
77304;SDS011;66364;52.622;7.746;2023-08-20T01:44:33;235.70;;;152.40;;
77304;SDS011;66364;52.622;7.746;2023-08-20T01:46:34;239.53;;;152.30;;
77304;SDS011;66364;52.622;7.746;2023-08-20T01:48:35;236.73;;;155.33;;
77304;SDS011;66364;52.622;7.746;2023-08-20T01:50:36;230.47;;;149.25;;
77304;SDS011;66364;52.622;7.746;2023-08-20T01:52:39;240.92;;;153.65;;
77304;SDS011;66364;52.622;7.746;2023-08-20T01:54:40;228.32;;;154.85;;
77304;SDS011;66364;52.622;7.746;2023-08-20T01:56:41;216.17;;;151.30;;
77304;SDS011;66364;52.622;7.746;2023-08-20T01:58:42;239.17;;;154.97;;
77304;SDS011;66364;52.622;7.746;2023-08-20T02:00:44;221.80;;;147.23;;
77304;SDS011;66364;52.622;7.746;2023-08-20T02:02:46;232.87;;;151.97;;
77304;SDS011;66364;52.622;7.746;2023-08-20T02:04:48;224.37;;;149.90;;
77304;SDS011;66364;52.622;7.746;2023-08-20T02:06:49;224.20;;;149.13;;
77304;SDS011;66364;52.622;7.746;2023-08-20T02:08:50;223.07;;;147.90;;
77304;SDS011;66364;52.622;7.746;2023-08-20T02:10:58;230.67;;;150.33;;
77304;SDS011;66364;52.622;7.746;2023-08-20T02:13:01;221.07;;;148.32;;
77304;SDS011;66364;52.622;7.746;2023-08-20T02:15:02;220.97;;;153.27;;
77304;SDS011;66364;52.622;7.746;2023-08-20T02:17:03;233.23;;;152.75;;
77304;SDS011;66364;52.622;7.746;2023-08-20T02:19:04;221.10;;;151.05;;
77304;SDS011;66364;52.622;7.746;2023-08-20T02:21:05;222.65;;;149.70;;
77304;SDS011;66364;52.622;7.746;2023-08-20T02:23:06;223.93;;;150.22;;
77304;SDS011;66364;52.622;7.746;2023-08-20T02:25:07;218.45;;;150.65;;
77304;SDS011;66364;52.622;7.746;2023-08-20T02:27:08;218.42;;;151.18;;
77304;SDS011;66364;52.622;7.746;2023-08-20T02:29:09;211.80;;;151.82;;
77304;SDS011;66364;52.622;7.746;2023-08-20T02:31:11;189.62;;;148.85;;
77304;SDS011;66364;52.622;7.746;2023-08-20T02:33:12;229.28;;;151.05;;
77304;SDS011;66364;52.622;7.746;2023-08-20T02:35:13;227.57;;;153.40;;
77304;SDS011;66364;52.622;7.746;2023-08-20T02:37:15;236.22;;;156.95;;
77304;SDS011;66364;52.622;7.746;2023-08-20T02:39:16;237.40;;;157.47;;
77304;SDS011;66364;52.622;7.746;2023-08-20T02:41:17;237.30;;;153.77;;
77304;SDS011;66364;52.622;7.746;2023-08-20T02:43:19;234.03;;;153.50;;
77304;SDS011;66364;52.622;7.746;2023-08-20T02:45:20;244.47;;;158.57;;
77304;SDS011;66364;52.622;7.746;2023-08-20T02:47:21;232.23;;;152.57;;
77304;SDS011;66364;52.622;7.746;2023-08-20T02:49:22;231.33;;;151.77;;
77304;SDS011;66364;52.622;7.746;2023-08-20T02:51:23;230.50;;;157.67;;
77304;SDS011;66364;52.622;7.746;2023-08-20T02:53:25;230.22;;;154.38;;
77304;SDS011;66364;52.622;7.746;2023-08-20T02:55:25;237.83;;;153.70;;
77304;SDS011;66364;52.622;7.746;2023-08-20T02:57:27;238.43;;;156.67;;
77304;SDS011;66364;52.622;7.746;2023-08-20T02:59:28;245.85;;;153.60;;
77304;SDS011;66364;52.622;7.746;2023-08-20T03:01:30;224.92;;;149.93;;
77304;SDS011;66364;52.622;7.746;2023-08-20T03:03:31;235.70;;;162.12;;
77304;SDS011;66364;52.622;7.746;2023-08-20T03:05:32;216.85;;;152.43;;
77304;SDS011;66364;52.622;7.746;2023-08-20T03:07:34;226.20;;;156.72;;
77304;SDS011;66364;52.622;7.746;2023-08-20T03:09:35;230.00;;;159.23;;
77304;SDS011;66364;52.622;7.746;2023-08-20T03:11:36;222.87;;;160.90;;
77304;SDS011;66364;52.622;7.746;2023-08-20T03:13:37;225.87;;;157.05;;
77304;SDS011;66364;52.622;7.746;2023-08-20T03:15:38;235.70;;;152.47;;
77304;SDS011;66364;52.622;7.746;2023-08-20T03:17:40;234.20;;;181.15;;
77304;SDS011;66364;52.622;7.746;2023-08-20T03:19:53;210.23;;;145.47;;
77304;SDS011;66364;52.622;7.746;2023-08-20T03:21:56;207.30;;;146.13;;
77304;SDS011;66364;52.622;7.746;2023-08-20T03:23:57;216.93;;;147.47;;
77304;SDS011;66364;52.622;7.746;2023-08-20T03:25:59;221.57;;;145.87;;
77304;SDS011;66364;52.622;7.746;2023-08-20T03:28:00;250.82;;;155.55;;
77304;SDS011;66364;52.622;7.746;2023-08-20T03:30:01;227.13;;;149.60;;
77304;SDS011;66364;52.622;7.746;2023-08-20T03:32:04;232.22;;;151.50;;
77304;SDS011;66364;52.622;7.746;2023-08-20T03:34:05;222.17;;;149.95;;
77304;SDS011;66364;52.622;7.746;2023-08-20T03:36:06;223.35;;;149.55;;
77304;SDS011;66364;52.622;7.746;2023-08-20T03:38:07;220.10;;;151.87;;
77304;SDS011;66364;52.622;7.746;2023-08-20T03:40:09;237.72;;;153.32;;
77304;SDS011;66364;52.622;7.746;2023-08-20T03:42:10;206.93;;;152.43;;
77304;SDS011;66364;52.622;7.746;2023-08-20T03:44:11;202.53;;;151.77;;
77304;SDS011;66364;52.622;7.746;2023-08-20T03:46:12;225.60;;;151.95;;
77304;SDS011;66364;52.622;7.746;2023-08-20T03:48:13;222.30;;;152.40;;
77304;SDS011;66364;52.622;7.746;2023-08-20T03:50:14;244.30;;;154.67;;
77304;SDS011;66364;52.622;7.746;2023-08-20T03:52:15;207.47;;;149.75;;
77304;SDS011;66364;52.622;7.746;2023-08-20T03:54:16;226.80;;;150.23;;
77304;SDS011;66364;52.622;7.746;2023-08-20T03:56:17;222.30;;;151.15;;
77304;SDS011;66364;52.622;7.746;2023-08-20T03:58:19;228.55;;;152.60;;
77304;SDS011;66364;52.622;7.746;2023-08-20T04:00:21;222.65;;;153.00;;
77304;SDS011;66364;52.622;7.746;2023-08-20T04:02:23;220.37;;;153.05;;
77304;SDS011;66364;52.622;7.746;2023-08-20T04:04:25;204.38;;;154.12;;
77304;SDS011;66364;52.622;7.746;2023-08-20T04:06:27;197.22;;;147.90;;
77304;SDS011;66364;52.622;7.746;2023-08-20T04:08:29;207.10;;;146.75;;
77304;SDS011;66364;52.622;7.746;2023-08-20T04:10:30;209.27;;;147.62;;
77304;SDS011;66364;52.622;7.746;2023-08-20T04:12:31;213.35;;;148.57;;
77304;SDS011;66364;52.622;7.746;2023-08-20T04:14:32;212.43;;;149.43;;
77304;SDS011;66364;52.622;7.746;2023-08-20T04:16:33;196.03;;;150.03;;
77304;SDS011;66364;52.622;7.746;2023-08-20T04:18:34;204.50;;;149.27;;
77304;SDS011;66364;52.622;7.746;2023-08-20T04:20:35;166.77;;;138.28;;
77304;SDS011;66364;52.622;7.746;2023-08-20T04:22:37;180.50;;;138.15;;
77304;SDS011;66364;52.622;7.746;2023-08-20T04:24:38;184.50;;;137.88;;
77304;SDS011;66364;52.622;7.746;2023-08-20T04:26:39;198.20;;;142.60;;
77304;SDS011;66364;52.622;7.746;2023-08-20T04:28:41;197.28;;;140.70;;
77304;SDS011;66364;52.622;7.746;2023-08-20T04:30:42;190.33;;;139.63;;
77304;SDS011;66364;52.622;7.746;2023-08-20T04:32:43;196.90;;;142.33;;
77304;SDS011;66364;52.622;7.746;2023-08-20T04:34:45;203.27;;;144.55;;
77304;SDS011;66364;52.622;7.746;2023-08-20T04:36:46;211.32;;;147.55;;
77304;SDS011;66364;52.622;7.746;2023-08-20T04:38:47;216.95;;;148.32;;
77304;SDS011;66364;52.622;7.746;2023-08-20T04:40:48;210.35;;;145.28;;
77304;SDS011;66364;52.622;7.746;2023-08-20T04:42:50;223.75;;;148.53;;
77304;SDS011;66364;52.622;7.746;2023-08-20T04:44:51;223.25;;;150.75;;
77304;SDS011;66364;52.622;7.746;2023-08-20T04:46:52;220.73;;;150.90;;
77304;SDS011;66364;52.622;7.746;2023-08-20T04:48:53;211.27;;;147.73;;
77304;SDS011;66364;52.622;7.746;2023-08-20T04:50:54;201.37;;;146.32;;
77304;SDS011;66364;52.622;7.746;2023-08-20T04:52:55;190.33;;;141.80;;
77304;SDS011;66364;52.622;7.746;2023-08-20T04:54:56;185.83;;;140.20;;
77304;SDS011;66364;52.622;7.746;2023-08-20T04:56:58;185.37;;;145.90;;
77304;SDS011;66364;52.622;7.746;2023-08-20T04:58:59;165.43;;;145.35;;
77304;SDS011;66364;52.622;7.746;2023-08-20T05:01:01;147.50;;;130.18;;
77304;SDS011;66364;52.622;7.746;2023-08-20T05:03:02;179.90;;;143.47;;
77304;SDS011;66364;52.622;7.746;2023-08-20T05:05:04;153.05;;;130.52;;
77304;SDS011;66364;52.622;7.746;2023-08-20T05:07:05;156.87;;;131.43;;
77304;SDS011;66364;52.622;7.746;2023-08-20T05:09:07;165.68;;;134.18;;
77304;SDS011;66364;52.622;7.746;2023-08-20T05:11:09;158.85;;;131.55;;
77304;SDS011;66364;52.622;7.746;2023-08-20T05:13:10;176.42;;;138.22;;
77304;SDS011;66364;52.622;7.746;2023-08-20T05:15:11;166.57;;;132.80;;
77304;SDS011;66364;52.622;7.746;2023-08-20T05:17:12;163.32;;;133.67;;
77304;SDS011;66364;52.622;7.746;2023-08-20T05:19:14;167.03;;;135.70;;
77304;SDS011;66364;52.622;7.746;2023-08-20T05:21:15;166.27;;;134.13;;
77304;SDS011;66364;52.622;7.746;2023-08-20T05:23:16;170.27;;;136.10;;
77304;SDS011;66364;52.622;7.746;2023-08-20T05:25:17;173.90;;;137.17;;
77304;SDS011;66364;52.622;7.746;2023-08-20T05:27:18;171.82;;;135.45;;
77304;SDS011;66364;52.622;7.746;2023-08-20T05:29:19;163.97;;;134.60;;
77304;SDS011;66364;52.622;7.746;2023-08-20T05:31:21;172.32;;;136.97;;
77304;SDS011;66364;52.622;7.746;2023-08-20T05:33:22;176.72;;;138.28;;
77304;SDS011;66364;52.622;7.746;2023-08-20T05:35:24;176.53;;;138.55;;
77304;SDS011;66364;52.622;7.746;2023-08-20T05:37:26;184.25;;;141.07;;
77304;SDS011;66364;52.622;7.746;2023-08-20T05:39:27;171.65;;;137.60;;
77304;SDS011;66364;52.622;7.746;2023-08-20T05:41:30;178.85;;;138.03;;
77304;SDS011;66364;52.622;7.746;2023-08-20T05:43:31;176.77;;;138.83;;
77304;SDS011;66364;52.622;7.746;2023-08-20T05:45:31;173.17;;;136.10;;
77304;SDS011;66364;52.622;7.746;2023-08-20T05:47:32;180.18;;;140.00;;
77304;SDS011;66364;52.622;7.746;2023-08-20T05:49:34;182.93;;;141.70;;
77304;SDS011;66364;52.622;7.746;2023-08-20T05:51:35;197.07;;;145.43;;
77304;SDS011;66364;52.622;7.746;2023-08-20T05:53:36;196.47;;;145.53;;
77304;SDS011;66364;52.622;7.746;2023-08-20T05:55:37;196.17;;;144.30;;
77304;SDS011;66364;52.622;7.746;2023-08-20T05:57:38;223.32;;;150.65;;
77304;SDS011;66364;52.622;7.746;2023-08-20T05:59:39;225.75;;;152.75;;
77304;SDS011;66364;52.622;7.746;2023-08-20T06:01:40;194.60;;;145.20;;
77304;SDS011;66364;52.622;7.746;2023-08-20T06:03:41;181.13;;;139.60;;
77304;SDS011;66364;52.622;7.746;2023-08-20T06:05:42;188.00;;;142.33;;
77304;SDS011;66364;52.622;7.746;2023-08-20T06:07:43;203.63;;;148.77;;
77304;SDS011;66364;52.622;7.746;2023-08-20T06:09:52;202.72;;;147.70;;
77304;SDS011;66364;52.622;7.746;2023-08-20T06:11:53;199.80;;;146.87;;
77304;SDS011;66364;52.622;7.746;2023-08-20T06:13:54;193.77;;;145.23;;
77304;SDS011;66364;52.622;7.746;2023-08-20T06:15:55;194.00;;;143.63;;
77304;SDS011;66364;52.622;7.746;2023-08-20T06:17:56;188.30;;;142.37;;
77304;SDS011;66364;52.622;7.746;2023-08-20T06:19:57;202.37;;;146.07;;
77304;SDS011;66364;52.622;7.746;2023-08-20T06:21:58;182.37;;;138.03;;
77304;SDS011;66364;52.622;7.746;2023-08-20T06:23:59;192.00;;;143.28;;
77304;SDS011;66364;52.622;7.746;2023-08-20T06:26:00;203.70;;;144.97;;
77304;SDS011;66364;52.622;7.746;2023-08-20T06:28:01;204.93;;;147.93;;
77304;SDS011;66364;52.622;7.746;2023-08-20T06:30:02;203.80;;;146.87;;
77304;SDS011;66364;52.622;7.746;2023-08-20T06:32:03;200.03;;;143.32;;
77304;SDS011;66364;52.622;7.746;2023-08-20T06:34:05;202.97;;;144.72;;
77304;SDS011;66364;52.622;7.746;2023-08-20T06:36:06;198.02;;;142.47;;
77304;SDS011;66364;52.622;7.746;2023-08-20T06:38:08;201.02;;;142.30;;
77304;SDS011;66364;52.622;7.746;2023-08-20T06:40:10;188.55;;;139.18;;
77304;SDS011;66364;52.622;7.746;2023-08-20T06:42:11;194.25;;;140.43;;
77304;SDS011;66364;52.622;7.746;2023-08-20T06:44:12;187.63;;;139.23;;
77304;SDS011;66364;52.622;7.746;2023-08-20T06:46:13;194.52;;;138.70;;
77304;SDS011;66364;52.622;7.746;2023-08-20T06:48:14;190.03;;;138.50;;
77304;SDS011;66364;52.622;7.746;2023-08-20T06:50:15;178.30;;;134.53;;
77304;SDS011;66364;52.622;7.746;2023-08-20T06:52:16;188.18;;;136.03;;
77304;SDS011;66364;52.622;7.746;2023-08-20T06:54:18;189.75;;;137.05;;
77304;SDS011;66364;52.622;7.746;2023-08-20T06:56:19;186.07;;;135.37;;
77304;SDS011;66364;52.622;7.746;2023-08-20T06:58:20;196.85;;;139.20;;
77304;SDS011;66364;52.622;7.746;2023-08-20T07:00:21;185.53;;;137.03;;
77304;SDS011;66364;52.622;7.746;2023-08-20T07:02:22;182.35;;;135.12;;
77304;SDS011;66364;52.622;7.746;2023-08-20T07:04:23;172.77;;;132.83;;
77304;SDS011;66364;52.622;7.746;2023-08-20T07:06:25;181.55;;;135.07;;
77304;SDS011;66364;52.622;7.746;2023-08-20T07:08:28;182.10;;;133.82;;
77304;SDS011;66364;52.622;7.746;2023-08-20T07:10:29;191.37;;;137.00;;
77304;SDS011;66364;52.622;7.746;2023-08-20T07:12:30;195.37;;;137.43;;
77304;SDS011;66364;52.622;7.746;2023-08-20T07:14:30;183.80;;;135.03;;
77304;SDS011;66364;52.622;7.746;2023-08-20T07:16:31;193.93;;;136.07;;
77304;SDS011;66364;52.622;7.746;2023-08-20T07:18:32;193.33;;;135.87;;
77304;SDS011;66364;52.622;7.746;2023-08-20T07:20:33;197.10;;;136.33;;
77304;SDS011;66364;52.622;7.746;2023-08-20T07:22:35;198.87;;;137.05;;
77304;SDS011;66364;52.622;7.746;2023-08-20T07:24:36;217.40;;;142.50;;
77304;SDS011;66364;52.622;7.746;2023-08-20T07:26:36;197.13;;;134.17;;
77304;SDS011;66364;52.622;7.746;2023-08-20T07:28:39;205.18;;;138.35;;
77304;SDS011;66364;52.622;7.746;2023-08-20T07:30:41;203.75;;;139.12;;
77304;SDS011;66364;52.622;7.746;2023-08-20T07:32:42;202.43;;;139.20;;
77304;SDS011;66364;52.622;7.746;2023-08-20T07:34:43;200.53;;;138.70;;
77304;SDS011;66364;52.622;7.746;2023-08-20T07:36:44;200.20;;;138.47;;
77304;SDS011;66364;52.622;7.746;2023-08-20T07:38:45;198.13;;;141.80;;
77304;SDS011;66364;52.622;7.746;2023-08-20T07:40:46;190.07;;;136.37;;
77304;SDS011;66364;52.622;7.746;2023-08-20T07:42:47;187.85;;;135.45;;
77304;SDS011;66364;52.622;7.746;2023-08-20T07:44:48;217.13;;;139.90;;
77304;SDS011;66364;52.622;7.746;2023-08-20T07:46:49;211.80;;;140.25;;
77304;SDS011;66364;52.622;7.746;2023-08-20T07:48:50;207.97;;;138.77;;
77304;SDS011;66364;52.622;7.746;2023-08-20T07:50:51;198.43;;;137.20;;
77304;SDS011;66364;52.622;7.746;2023-08-20T07:52:52;200.80;;;139.23;;
77304;SDS011;66364;52.622;7.746;2023-08-20T07:54:54;204.05;;;140.12;;
77304;SDS011;66364;52.622;7.746;2023-08-20T07:56:54;212.40;;;139.07;;
77304;SDS011;66364;52.622;7.746;2023-08-20T07:58:55;207.53;;;140.67;;
77304;SDS011;66364;52.622;7.746;2023-08-20T08:00:56;213.83;;;141.37;;
77304;SDS011;66364;52.622;7.746;2023-08-20T08:02:58;214.42;;;141.37;;
77304;SDS011;66364;52.622;7.746;2023-08-20T08:04:59;198.17;;;137.60;;
77304;SDS011;66364;52.622;7.746;2023-08-20T08:06:59;211.53;;;147.23;;
77304;SDS011;66364;52.622;7.746;2023-08-20T08:11:21;137.75;;;122.70;;
77304;SDS011;66364;52.622;7.746;2023-08-20T08:13:22;131.63;;;118.60;;
77304;SDS011;66364;52.622;7.746;2023-08-20T08:15:24;113.72;;;103.50;;
77304;SDS011;66364;52.622;7.746;2023-08-20T08:17:25;116.15;;;105.72;;
77304;SDS011;66364;52.622;7.746;2023-08-20T08:19:27;105.25;;;97.05;;
77304;SDS011;66364;52.622;7.746;2023-08-20T08:21:28;102.95;;;95.50;;
77304;SDS011;66364;52.622;7.746;2023-08-20T08:23:29;106.70;;;98.22;;
77304;SDS011;66364;52.622;7.746;2023-08-20T08:25:30;100.42;;;93.20;;
77304;SDS011;66364;52.622;7.746;2023-08-20T08:27:31;98.10;;;91.55;;
77304;SDS011;66364;52.622;7.746;2023-08-20T08:29:32;110.68;;;101.40;;
77304;SDS011;66364;52.622;7.746;2023-08-20T08:31:34;109.32;;;100.47;;
77304;SDS011;66364;52.622;7.746;2023-08-20T08:33:34;110.17;;;101.70;;
77304;SDS011;66364;52.622;7.746;2023-08-20T08:35:35;110.03;;;100.87;;
77304;SDS011;66364;52.622;7.746;2023-08-20T08:37:36;112.80;;;103.00;;
77304;SDS011;66364;52.622;7.746;2023-08-20T08:39:39;103.62;;;96.00;;
77304;SDS011;66364;52.622;7.746;2023-08-20T08:41:40;113.83;;;104.45;;
77304;SDS011;66364;52.622;7.746;2023-08-20T08:43:43;113.55;;;104.43;;
77304;SDS011;66364;52.622;7.746;2023-08-20T08:45:45;108.87;;;100.10;;
77304;SDS011;66364;52.622;7.746;2023-08-20T08:47:48;107.55;;;99.32;;
77304;SDS011;66364;52.622;7.746;2023-08-20T08:49:50;107.30;;;99.28;;
77304;SDS011;66364;52.622;7.746;2023-08-20T08:51:53;98.58;;;92.45;;
77304;SDS011;66364;52.622;7.746;2023-08-20T08:53:57;104.47;;;96.78;;
77304;SDS011;66364;52.622;7.746;2023-08-20T08:55:59;98.97;;;92.20;;
77304;SDS011;66364;52.622;7.746;2023-08-20T08:58:00;116.00;;;104.10;;
77304;SDS011;66364;52.622;7.746;2023-08-20T09:00:01;108.17;;;99.50;;
77304;SDS011;66364;52.622;7.746;2023-08-20T09:02:07;113.37;;;103.83;;
77304;SDS011;66364;52.622;7.746;2023-08-20T09:04:08;109.92;;;100.92;;
77304;SDS011;66364;52.622;7.746;2023-08-20T09:06:09;118.02;;;108.12;;
77304;SDS011;66364;52.622;7.746;2023-08-20T09:08:13;100.62;;;93.62;;
77304;SDS011;66364;52.622;7.746;2023-08-20T09:10:20;101.33;;;93.97;;
77304;SDS011;66364;52.622;7.746;2023-08-20T09:12:21;109.97;;;100.97;;
77304;SDS011;66364;52.622;7.746;2023-08-20T09:14:23;107.87;;;99.33;;
77304;SDS011;66364;52.622;7.746;2023-08-20T09:16:28;104.97;;;97.40;;
77304;SDS011;66364;52.622;7.746;2023-08-20T09:18:37;113.35;;;104.03;;
77304;SDS011;66364;52.622;7.746;2023-08-20T09:20:42;96.25;;;90.92;;
77304;SDS011;66364;52.622;7.746;2023-08-20T09:22:48;114.32;;;105.45;;
77304;SDS011;66364;52.622;7.746;2023-08-20T09:24:52;114.92;;;105.27;;
77304;SDS011;66364;52.622;7.746;2023-08-20T09:26:57;113.83;;;104.92;;
77304;SDS011;66364;52.622;7.746;2023-08-20T09:28:59;104.75;;;98.10;;
77304;SDS011;66364;52.622;7.746;2023-08-20T09:31:01;107.00;;;99.65;;
77304;SDS011;66364;52.622;7.746;2023-08-20T09:33:06;104.13;;;97.23;;
77304;SDS011;66364;52.622;7.746;2023-08-20T09:35:17;105.58;;;98.52;;
77304;SDS011;66364;52.622;7.746;2023-08-20T09:37:14;113.80;;;104.97;;
77304;SDS011;66364;52.622;7.746;2023-08-20T09:39:15;112.68;;;104.32;;
77304;SDS011;66364;52.622;7.746;2023-08-20T09:41:16;109.30;;;101.15;;
77304;SDS011;66364;52.622;7.746;2023-08-20T09:43:19;94.80;;;91.10;;
77304;SDS011;66364;52.622;7.746;2023-08-20T09:45:20;95.40;;;91.80;;
77304;SDS011;66364;52.622;7.746;2023-08-20T09:47:21;83.45;;;80.80;;
77304;SDS011;66364;52.622;7.746;2023-08-20T09:49:26;91.00;;;87.78;;
77304;SDS011;66364;52.622;7.746;2023-08-20T09:51:31;61.73;;;59.93;;
77304;SDS011;66364;52.622;7.746;2023-08-20T09:53:44;96.15;;;90.40;;
77304;SDS011;66364;52.622;7.746;2023-08-20T09:55:44;111.52;;;102.60;;
77304;SDS011;66364;52.622;7.746;2023-08-20T09:57:47;122.78;;;113.30;;
77304;SDS011;66364;52.622;7.746;2023-08-20T09:59:49;135.20;;;125.42;;
77304;SDS011;66364;52.622;7.746;2023-08-20T10:01:51;110.57;;;102.22;;
77304;SDS011;66364;52.622;7.746;2023-08-20T10:03:53;120.02;;;109.57;;
77304;SDS011;66364;52.622;7.746;2023-08-20T10:05:54;119.25;;;109.22;;
77304;SDS011;66364;52.622;7.746;2023-08-20T10:07:57;121.97;;;112.08;;
77304;SDS011;66364;52.622;7.746;2023-08-20T10:10:00;124.80;;;113.75;;
77304;SDS011;66364;52.622;7.746;2023-08-20T10:12:03;125.02;;;114.40;;
77304;SDS011;66364;52.622;7.746;2023-08-20T10:14:05;159.80;;;148.70;;
77304;SDS011;66364;52.622;7.746;2023-08-20T10:16:07;112.75;;;103.58;;
77304;SDS011;66364;52.622;7.746;2023-08-20T10:18:09;108.80;;;100.80;;
77304;SDS011;66364;52.622;7.746;2023-08-20T10:20:12;102.62;;;96.22;;
77304;SDS011;66364;52.622;7.746;2023-08-20T10:22:15;108.90;;;101.10;;
77304;SDS011;66364;52.622;7.746;2023-08-20T10:24:18;135.00;;;125.10;;
77304;SDS011;66364;52.622;7.746;2023-08-20T10:26:20;127.30;;;117.53;;
77304;SDS011;66364;52.622;7.746;2023-08-20T10:28:22;112.05;;;103.50;;
77304;SDS011;66364;52.622;7.746;2023-08-20T10:30:26;114.77;;;105.12;;
77304;SDS011;66364;52.622;7.746;2023-08-20T10:34:50;118.53;;;108.07;;
77304;SDS011;66364;52.622;7.746;2023-08-20T10:36:51;117.33;;;107.30;;
77304;SDS011;66364;52.622;7.746;2023-08-20T10:38:52;118.73;;;108.50;;
77304;SDS011;66364;52.622;7.746;2023-08-20T10:42:58;120.70;;;110.08;;
77304;SDS011;66364;52.622;7.746;2023-08-20T10:45:04;123.00;;;112.10;;
77304;SDS011;66364;52.622;7.746;2023-08-20T10:47:08;115.92;;;106.63;;
77304;SDS011;66364;52.622;7.746;2023-08-20T10:49:09;113.97;;;104.35;;
77304;SDS011;66364;52.622;7.746;2023-08-20T10:51:16;114.35;;;105.22;;
77304;SDS011;66364;52.622;7.746;2023-08-20T10:53:23;119.05;;;109.17;;
77304;SDS011;66364;52.622;7.746;2023-08-20T10:55:25;123.13;;;112.57;;
77304;SDS011;66364;52.622;7.746;2023-08-20T10:57:32;130.45;;;118.93;;
77304;SDS011;66364;52.622;7.746;2023-08-20T10:59:35;116.35;;;107.05;;
77304;SDS011;66364;52.622;7.746;2023-08-20T11:01:49;110.57;;;102.80;;
77304;SDS011;66364;52.622;7.746;2023-08-20T11:03:51;116.97;;;106.97;;
77304;SDS011;66364;52.622;7.746;2023-08-20T11:05:52;115.33;;;105.63;;
77304;SDS011;66364;52.622;7.746;2023-08-20T11:07:54;115.20;;;106.55;;
77304;SDS011;66364;52.622;7.746;2023-08-20T11:09:57;116.17;;;107.07;;
77304;SDS011;66364;52.622;7.746;2023-08-20T11:11:59;111.60;;;103.12;;
77304;SDS011;66364;52.622;7.746;2023-08-20T11:14:04;113.43;;;104.83;;
77304;SDS011;66364;52.622;7.746;2023-08-20T11:16:07;111.28;;;103.47;;
77304;SDS011;66364;52.622;7.746;2023-08-20T11:18:09;123.80;;;112.88;;
77304;SDS011;66364;52.622;7.746;2023-08-20T11:20:10;171.37;;;137.35;;
77304;SDS011;66364;52.622;7.746;2023-08-20T11:22:15;160.80;;;134.43;;
77304;SDS011;66364;52.622;7.746;2023-08-20T11:24:16;177.50;;;142.00;;
77304;SDS011;66364;52.622;7.746;2023-08-20T11:26:18;199.97;;;147.95;;
77304;SDS011;66364;52.622;7.746;2023-08-20T11:28:20;167.82;;;139.45;;
77304;SDS011;66364;52.622;7.746;2023-08-20T11:30:21;187.13;;;141.67;;
77304;SDS011;66364;52.622;7.746;2023-08-20T11:32:25;190.92;;;140.22;;
77304;SDS011;66364;52.622;7.746;2023-08-20T11:34:27;188.95;;;140.95;;
77304;SDS011;66364;52.622;7.746;2023-08-20T11:36:28;184.67;;;138.27;;
77304;SDS011;66364;52.622;7.746;2023-08-20T11:38:29;175.25;;;136.68;;
77304;SDS011;66364;52.622;7.746;2023-08-20T11:40:30;168.83;;;135.30;;
77304;SDS011;66364;52.622;7.746;2023-08-20T11:42:31;167.57;;;135.07;;
77304;SDS011;66364;52.622;7.746;2023-08-20T11:44:41;168.40;;;134.70;;
77304;SDS011;66364;52.622;7.746;2023-08-20T11:46:43;167.40;;;136.72;;
77304;SDS011;66364;52.622;7.746;2023-08-20T11:51:05;171.65;;;136.15;;
77304;SDS011;66364;52.622;7.746;2023-08-20T11:53:07;171.02;;;136.40;;